sensor_id;sensor_type;location;lat;lon;timestamp;P1;durP1;ratioP1;P2;durP2;ratioP2
57085;SDS011;42964;42.910;23.792;2022-11-23T00:04:00;27.80;;;19.65;;
57085;SDS011;42964;42.910;23.792;2022-11-23T00:09:01;22.88;;;16.20;;
57085;SDS011;42964;42.910;23.792;2022-11-23T00:14:01;23.42;;;15.27;;
57085;SDS011;42964;42.910;23.792;2022-11-23T00:19:01;21.85;;;13.73;;
57085;SDS011;42964;42.910;23.792;2022-11-23T00:24:00;17.70;;;12.18;;
57085;SDS011;42964;42.910;23.792;2022-11-23T00:28:59;23.00;;;13.27;;
57085;SDS011;42964;42.910;23.792;2022-11-23T00:33:58;20.55;;;14.07;;
57085;SDS011;42964;42.910;23.792;2022-11-23T00:38:57;14.13;;;9.27;;
57085;SDS011;42964;42.910;23.792;2022-11-23T00:43:56;15.02;;;10.18;;
57085;SDS011;42964;42.910;23.792;2022-11-23T00:48:55;15.05;;;9.63;;
57085;SDS011;42964;42.910;23.792;2022-11-23T00:53:55;17.95;;;11.02;;
57085;SDS011;42964;42.910;23.792;2022-11-23T00:58:55;18.77;;;11.52;;
57085;SDS011;42964;42.910;23.792;2022-11-23T01:03:56;21.75;;;14.57;;
57085;SDS011;42964;42.910;23.792;2022-11-23T01:08:57;20.15;;;12.80;;
57085;SDS011;42964;42.910;23.792;2022-11-23T01:13:58;17.10;;;11.32;;
57085;SDS011;42964;42.910;23.792;2022-11-23T01:18:58;15.20;;;9.07;;
57085;SDS011;42964;42.910;23.792;2022-11-23T01:23:59;12.90;;;7.47;;
57085;SDS011;42964;42.910;23.792;2022-11-23T01:28:58;16.15;;;8.75;;
57085;SDS011;42964;42.910;23.792;2022-11-23T01:33:58;12.35;;;8.02;;
57085;SDS011;42964;42.910;23.792;2022-11-23T01:38:58;13.68;;;7.95;;
57085;SDS011;42964;42.910;23.792;2022-11-23T01:43:59;14.25;;;8.10;;
57085;SDS011;42964;42.910;23.792;2022-11-23T01:49:05;15.43;;;10.52;;
57085;SDS011;42964;42.910;23.792;2022-11-23T01:54:06;79.10;;;32.58;;
57085;SDS011;42964;42.910;23.792;2022-11-23T01:59:10;43.15;;;21.08;;
57085;SDS011;42964;42.910;23.792;2022-11-23T02:04:16;89.38;;;40.97;;
57085;SDS011;42964;42.910;23.792;2022-11-23T02:09:19;28.42;;;15.88;;
57085;SDS011;42964;42.910;23.792;2022-11-23T02:14:20;23.10;;;14.80;;
57085;SDS011;42964;42.910;23.792;2022-11-23T02:19:23;22.08;;;13.80;;
57085;SDS011;42964;42.910;23.792;2022-11-23T02:24:34;44.00;;;23.55;;
57085;SDS011;42964;42.910;23.792;2022-11-23T02:29:39;17.65;;;11.68;;
57085;SDS011;42964;42.910;23.792;2022-11-23T02:34:39;14.40;;;9.70;;
57085;SDS011;42964;42.910;23.792;2022-11-23T02:39:41;10.82;;;6.38;;
57085;SDS011;42964;42.910;23.792;2022-11-23T02:49:54;4.82;;;2.20;;
57085;SDS011;42964;42.910;23.792;2022-11-23T02:54:53;3.78;;;2.38;;
57085;SDS011;42964;42.910;23.792;2022-11-23T02:59:52;5.90;;;2.47;;
57085;SDS011;42964;42.910;23.792;2022-11-23T03:04:51;4.90;;;2.50;;
57085;SDS011;42964;42.910;23.792;2022-11-23T03:09:50;4.45;;;2.83;;
57085;SDS011;42964;42.910;23.792;2022-11-23T03:14:48;3.20;;;2.60;;
57085;SDS011;42964;42.910;23.792;2022-11-23T03:19:47;4.07;;;2.40;;
57085;SDS011;42964;42.910;23.792;2022-11-23T03:24:46;4.97;;;2.67;;
57085;SDS011;42964;42.910;23.792;2022-11-23T03:29:45;4.82;;;2.38;;
57085;SDS011;42964;42.910;23.792;2022-11-23T03:34:44;3.63;;;2.20;;
57085;SDS011;42964;42.910;23.792;2022-11-23T03:39:43;5.25;;;3.17;;
57085;SDS011;42964;42.910;23.792;2022-11-23T03:44:42;4.82;;;3.50;;
57085;SDS011;42964;42.910;23.792;2022-11-23T03:49:41;4.22;;;3.08;;
57085;SDS011;42964;42.910;23.792;2022-11-23T03:54:40;3.78;;;2.55;;
57085;SDS011;42964;42.910;23.792;2022-11-23T03:59:39;2.97;;;2.45;;
57085;SDS011;42964;42.910;23.792;2022-11-23T04:04:38;2.17;;;2.00;;
57085;SDS011;42964;42.910;23.792;2022-11-23T04:09:37;4.05;;;2.33;;
57085;SDS011;42964;42.910;23.792;2022-11-23T04:14:36;4.15;;;2.20;;
57085;SDS011;42964;42.910;23.792;2022-11-23T04:19:35;2.80;;;2.20;;
57085;SDS011;42964;42.910;23.792;2022-11-23T04:24:33;3.97;;;2.60;;
57085;SDS011;42964;42.910;23.792;2022-11-23T04:29:32;2.65;;;1.98;;
57085;SDS011;42964;42.910;23.792;2022-11-23T04:34:31;4.85;;;3.05;;
57085;SDS011;42964;42.910;23.792;2022-11-23T04:39:30;2.90;;;2.53;;
57085;SDS011;42964;42.910;23.792;2022-11-23T04:44:29;6.35;;;2.70;;
57085;SDS011;42964;42.910;23.792;2022-11-23T04:49:28;3.10;;;2.80;;
57085;SDS011;42964;42.910;23.792;2022-11-23T04:54:27;3.75;;;2.88;;
57085;SDS011;42964;42.910;23.792;2022-11-23T04:59:26;5.47;;;3.53;;
57085;SDS011;42964;42.910;23.792;2022-11-23T05:04:25;6.32;;;4.15;;
57085;SDS011;42964;42.910;23.792;2022-11-23T05:09:24;7.53;;;4.88;;
57085;SDS011;42964;42.910;23.792;2022-11-23T05:14:23;7.43;;;5.10;;
57085;SDS011;42964;42.910;23.792;2022-11-23T05:19:22;5.50;;;2.75;;
57085;SDS011;42964;42.910;23.792;2022-11-23T05:24:21;6.20;;;3.92;;
57085;SDS011;42964;42.910;23.792;2022-11-23T05:29:20;10.75;;;6.07;;
57085;SDS011;42964;42.910;23.792;2022-11-23T05:34:18;6.45;;;3.78;;
57085;SDS011;42964;42.910;23.792;2022-11-23T05:39:17;10.43;;;5.82;;
57085;SDS011;42964;42.910;23.792;2022-11-23T05:44:16;7.85;;;5.68;;
57085;SDS011;42964;42.910;23.792;2022-11-23T05:49:15;16.48;;;11.93;;
57085;SDS011;42964;42.910;23.792;2022-11-23T05:54:14;12.57;;;5.10;;
57085;SDS011;42964;42.910;23.792;2022-11-23T05:59:13;12.95;;;6.47;;
57085;SDS011;42964;42.910;23.792;2022-11-23T06:04:12;19.92;;;12.55;;
57085;SDS011;42964;42.910;23.792;2022-11-23T06:14:10;18.08;;;10.77;;
57085;SDS011;42964;42.910;23.792;2022-11-23T06:19:10;18.33;;;13.13;;
57085;SDS011;42964;42.910;23.792;2022-11-23T06:24:09;21.50;;;13.73;;
57085;SDS011;42964;42.910;23.792;2022-11-23T06:29:08;20.98;;;13.95;;
57085;SDS011;42964;42.910;23.792;2022-11-23T06:34:07;21.33;;;12.40;;
57085;SDS011;42964;42.910;23.792;2022-11-23T06:39:06;21.45;;;12.93;;
57085;SDS011;42964;42.910;23.792;2022-11-23T06:44:05;65.80;;;39.97;;
57085;SDS011;42964;42.910;23.792;2022-11-23T06:49:04;49.00;;;29.65;;
57085;SDS011;42964;42.910;23.792;2022-11-23T06:54:03;23.63;;;13.73;;
57085;SDS011;42964;42.910;23.792;2022-11-23T06:59:02;18.55;;;12.65;;
57085;SDS011;42964;42.910;23.792;2022-11-23T07:04:01;17.80;;;11.10;;
57085;SDS011;42964;42.910;23.792;2022-11-23T07:09:00;63.20;;;28.83;;
57085;SDS011;42964;42.910;23.792;2022-11-23T07:14:00;18.92;;;10.48;;
57085;SDS011;42964;42.910;23.792;2022-11-23T07:18:59;23.60;;;15.68;;
57085;SDS011;42964;42.910;23.792;2022-11-23T07:23:58;12.88;;;7.95;;
57085;SDS011;42964;42.910;23.792;2022-11-23T07:28:57;15.15;;;11.82;;
57085;SDS011;42964;42.910;23.792;2022-11-23T07:33:56;17.75;;;13.48;;
57085;SDS011;42964;42.910;23.792;2022-11-23T07:38:55;14.15;;;10.32;;
57085;SDS011;42964;42.910;23.792;2022-11-23T07:43:54;24.58;;;12.60;;
57085;SDS011;42964;42.910;23.792;2022-11-23T07:48:53;18.52;;;12.80;;
57085;SDS011;42964;42.910;23.792;2022-11-23T07:53:56;18.60;;;13.77;;
57085;SDS011;42964;42.910;23.792;2022-11-23T07:58:55;21.38;;;15.25;;
57085;SDS011;42964;42.910;23.792;2022-11-23T08:03:54;20.42;;;15.90;;
57085;SDS011;42964;42.910;23.792;2022-11-23T08:08:54;21.15;;;16.42;;
57085;SDS011;42964;42.910;23.792;2022-11-23T08:13:53;23.05;;;14.65;;
57085;SDS011;42964;42.910;23.792;2022-11-23T08:18:52;18.15;;;13.00;;
57085;SDS011;42964;42.910;23.792;2022-11-23T08:23:51;20.50;;;15.75;;
57085;SDS011;42964;42.910;23.792;2022-11-23T08:28:50;13.82;;;9.68;;
57085;SDS011;42964;42.910;23.792;2022-11-23T08:33:49;13.20;;;8.48;;
57085;SDS011;42964;42.910;23.792;2022-11-23T08:38:48;12.60;;;9.18;;
57085;SDS011;42964;42.910;23.792;2022-11-23T08:43:49;11.73;;;8.10;;
57085;SDS011;42964;42.910;23.792;2022-11-23T08:48:48;15.55;;;11.32;;
57085;SDS011;42964;42.910;23.792;2022-11-23T08:53:48;13.07;;;9.63;;
57085;SDS011;42964;42.910;23.792;2022-11-23T08:58:48;13.68;;;9.80;;
57085;SDS011;42964;42.910;23.792;2022-11-23T09:03:47;13.15;;;8.95;;
57085;SDS011;42964;42.910;23.792;2022-11-23T09:08:45;13.57;;;7.43;;
57085;SDS011;42964;42.910;23.792;2022-11-23T09:13:44;8.57;;;6.38;;
57085;SDS011;42964;42.910;23.792;2022-11-23T09:18:43;9.45;;;6.03;;
57085;SDS011;42964;42.910;23.792;2022-11-23T09:23:42;22.75;;;6.55;;
57085;SDS011;42964;42.910;23.792;2022-11-23T09:28:41;8.23;;;6.25;;
57085;SDS011;42964;42.910;23.792;2022-11-23T09:33:40;11.18;;;5.68;;
57085;SDS011;42964;42.910;23.792;2022-11-23T09:38:39;8.00;;;4.78;;
57085;SDS011;42964;42.910;23.792;2022-11-23T09:43:47;13.00;;;5.63;;
57085;SDS011;42964;42.910;23.792;2022-11-23T09:53:59;10.15;;;4.93;;
57085;SDS011;42964;42.910;23.792;2022-11-23T09:59:03;9.35;;;4.57;;
57085;SDS011;42964;42.910;23.792;2022-11-23T10:04:14;5.32;;;3.90;;
57085;SDS011;42964;42.910;23.792;2022-11-23T10:25:03;5.65;;;2.72;;
57085;SDS011;42964;42.910;23.792;2022-11-23T10:30:13;4.15;;;2.40;;
57085;SDS011;42964;42.910;23.792;2022-11-23T10:35:14;6.80;;;2.78;;
57085;SDS011;42964;42.910;23.792;2022-11-23T10:40:16;5.07;;;2.03;;
57085;SDS011;42964;42.910;23.792;2022-11-23T10:45:23;6.38;;;3.28;;
57085;SDS011;42964;42.910;23.792;2022-11-23T10:55:26;7.75;;;3.10;;
57085;SDS011;42964;42.910;23.792;2022-11-23T11:00:29;4.25;;;2.67;;
57085;SDS011;42964;42.910;23.792;2022-11-23T11:05:38;5.90;;;2.65;;
57085;SDS011;42964;42.910;23.792;2022-11-23T11:10:48;3.97;;;3.07;;
57085;SDS011;42964;42.910;23.792;2022-11-23T11:15:56;5.70;;;3.30;;
57085;SDS011;42964;42.910;23.792;2022-11-23T11:21:04;6.82;;;3.55;;
57085;SDS011;42964;42.910;23.792;2022-11-23T11:26:10;10.35;;;6.18;;
57085;SDS011;42964;42.910;23.792;2022-11-23T11:31:38;10.07;;;4.15;;
57085;SDS011;42964;42.910;23.792;2022-11-23T11:42:12;5.05;;;2.60;;
57085;SDS011;42964;42.910;23.792;2022-11-23T11:47:21;5.55;;;3.67;;
57085;SDS011;42964;42.910;23.792;2022-11-23T11:52:35;9.38;;;5.43;;
57085;SDS011;42964;42.910;23.792;2022-11-23T11:57:40;6.43;;;3.53;;
57085;SDS011;42964;42.910;23.792;2022-11-23T12:18:14;8.00;;;3.95;;
57085;SDS011;42964;42.910;23.792;2022-11-23T12:34:13;4.53;;;2.80;;
57085;SDS011;42964;42.910;23.792;2022-11-23T12:39:45;7.47;;;2.95;;
57085;SDS011;42964;42.910;23.792;2022-11-23T12:44:48;4.95;;;2.75;;
57085;SDS011;42964;42.910;23.792;2022-11-23T12:50:32;4.78;;;2.75;;
57085;SDS011;42964;42.910;23.792;2022-11-23T13:01:00;4.85;;;2.95;;
57085;SDS011;42964;42.910;23.792;2022-11-23T13:16:44;3.27;;;2.27;;
57085;SDS011;42964;42.910;23.792;2022-11-23T13:21:52;6.25;;;2.53;;
57085;SDS011;42964;42.910;23.792;2022-11-23T13:37:37;6.25;;;3.28;;
57085;SDS011;42964;42.910;23.792;2022-11-23T13:48:27;5.05;;;2.40;;
57085;SDS011;42964;42.910;23.792;2022-11-23T13:58:35;3.75;;;2.00;;
57085;SDS011;42964;42.910;23.792;2022-11-23T14:08:51;13.43;;;7.85;;
57085;SDS011;42964;42.910;23.792;2022-11-23T14:13:58;9.57;;;5.25;;
57085;SDS011;42964;42.910;23.792;2022-11-23T14:40:44;15.05;;;9.52;;
57085;SDS011;42964;42.910;23.792;2022-11-23T14:45:45;13.85;;;9.13;;
57085;SDS011;42964;42.910;23.792;2022-11-23T14:50:46;38.38;;;29.48;;
57085;SDS011;42964;42.910;23.792;2022-11-23T14:55:53;27.48;;;20.38;;
57085;SDS011;42964;42.910;23.792;2022-11-23T15:00:57;12.70;;;5.75;;
57085;SDS011;42964;42.910;23.792;2022-11-23T15:06:07;12.85;;;5.72;;
57085;SDS011;42964;42.910;23.792;2022-11-23T15:11:11;12.18;;;6.40;;
57085;SDS011;42964;42.910;23.792;2022-11-23T15:16:15;14.60;;;8.05;;
57085;SDS011;42964;42.910;23.792;2022-11-23T15:21:18;12.63;;;7.60;;
57085;SDS011;42964;42.910;23.792;2022-11-23T15:36:28;42.38;;;27.15;;
57085;SDS011;42964;42.910;23.792;2022-11-23T15:41:29;32.22;;;19.63;;
57085;SDS011;42964;42.910;23.792;2022-11-23T15:46:33;33.72;;;17.55;;
57085;SDS011;42964;42.910;23.792;2022-11-23T15:51:38;24.80;;;15.00;;
57085;SDS011;42964;42.910;23.792;2022-11-23T15:56:39;15.43;;;8.45;;
57085;SDS011;42964;42.910;23.792;2022-11-23T16:01:42;21.63;;;12.07;;
57085;SDS011;42964;42.910;23.792;2022-11-23T16:06:45;79.15;;;56.80;;
57085;SDS011;42964;42.910;23.792;2022-11-23T16:11:45;61.33;;;50.78;;
57085;SDS011;42964;42.910;23.792;2022-11-23T16:16:45;26.10;;;17.52;;
57085;SDS011;42964;42.910;23.792;2022-11-23T16:21:46;399.17;;;192.35;;
57085;SDS011;42964;42.910;23.792;2022-11-23T16:26:45;85.72;;;51.17;;
57085;SDS011;42964;42.910;23.792;2022-11-23T16:31:50;104.85;;;61.22;;
57085;SDS011;42964;42.910;23.792;2022-11-23T16:36:51;74.13;;;48.55;;
57085;SDS011;42964;42.910;23.792;2022-11-23T16:41:53;101.03;;;62.53;;
57085;SDS011;42964;42.910;23.792;2022-11-23T16:51:51;46.05;;;27.92;;
57085;SDS011;42964;42.910;23.792;2022-11-23T16:56:53;41.03;;;26.60;;
57085;SDS011;42964;42.910;23.792;2022-11-23T17:01:52;52.35;;;35.60;;
57085;SDS011;42964;42.910;23.792;2022-11-23T17:06:51;16.33;;;9.30;;
57085;SDS011;42964;42.910;23.792;2022-11-23T17:11:50;44.17;;;31.88;;
57085;SDS011;42964;42.910;23.792;2022-11-23T17:16:49;19.48;;;11.10;;
57085;SDS011;42964;42.910;23.792;2022-11-23T17:21:48;19.30;;;12.20;;
57085;SDS011;42964;42.910;23.792;2022-11-23T17:26:47;32.72;;;23.70;;
57085;SDS011;42964;42.910;23.792;2022-11-23T17:31:50;17.92;;;10.88;;
57085;SDS011;42964;42.910;23.792;2022-11-23T17:36:49;19.08;;;12.93;;
57085;SDS011;42964;42.910;23.792;2022-11-23T17:41:49;29.33;;;19.90;;
57085;SDS011;42964;42.910;23.792;2022-11-23T17:46:49;26.08;;;19.05;;
57085;SDS011;42964;42.910;23.792;2022-11-23T17:51:50;37.17;;;22.90;;
57085;SDS011;42964;42.910;23.792;2022-11-23T17:56:49;66.80;;;37.42;;
57085;SDS011;42964;42.910;23.792;2022-11-23T18:01:49;61.00;;;39.13;;
57085;SDS011;42964;42.910;23.792;2022-11-23T18:06:48;89.30;;;58.33;;
57085;SDS011;42964;42.910;23.792;2022-11-23T18:11:47;83.25;;;56.38;;
57085;SDS011;42964;42.910;23.792;2022-11-23T18:16:49;81.93;;;50.22;;
57085;SDS011;42964;42.910;23.792;2022-11-23T18:21:48;83.88;;;53.60;;
57085;SDS011;42964;42.910;23.792;2022-11-23T18:26:47;68.07;;;44.95;;
57085;SDS011;42964;42.910;23.792;2022-11-23T18:31:46;56.25;;;37.13;;
57085;SDS011;42964;42.910;23.792;2022-11-23T18:41:44;107.45;;;73.68;;
57085;SDS011;42964;42.910;23.792;2022-11-23T18:46:44;110.45;;;76.47;;
57085;SDS011;42964;42.910;23.792;2022-11-23T18:51:43;112.88;;;77.35;;
57085;SDS011;42964;42.910;23.792;2022-11-23T18:56:42;97.78;;;62.55;;
57085;SDS011;42964;42.910;23.792;2022-11-23T19:01:41;114.15;;;76.45;;
57085;SDS011;42964;42.910;23.792;2022-11-23T19:06:40;101.25;;;67.45;;
57085;SDS011;42964;42.910;23.792;2022-11-23T19:11:39;65.32;;;41.13;;
57085;SDS011;42964;42.910;23.792;2022-11-23T19:16:38;64.53;;;42.63;;
57085;SDS011;42964;42.910;23.792;2022-11-23T19:21:37;56.72;;;35.20;;
57085;SDS011;42964;42.910;23.792;2022-11-23T19:26:36;53.03;;;31.77;;
57085;SDS011;42964;42.910;23.792;2022-11-23T19:31:35;53.08;;;37.33;;
57085;SDS011;42964;42.910;23.792;2022-11-23T19:36:34;62.58;;;42.47;;
57085;SDS011;42964;42.910;23.792;2022-11-23T19:41:33;62.53;;;37.85;;
57085;SDS011;42964;42.910;23.792;2022-11-23T19:46:32;60.13;;;37.38;;
57085;SDS011;42964;42.910;23.792;2022-11-23T19:51:31;50.72;;;32.08;;
57085;SDS011;42964;42.910;23.792;2022-11-23T19:56:30;105.50;;;70.43;;
57085;SDS011;42964;42.910;23.792;2022-11-23T20:01:30;44.55;;;27.70;;
57085;SDS011;42964;42.910;23.792;2022-11-23T20:06:30;71.30;;;49.80;;
57085;SDS011;42964;42.910;23.792;2022-11-23T20:11:30;50.35;;;29.63;;
57085;SDS011;42964;42.910;23.792;2022-11-23T20:16:31;71.25;;;46.42;;
57085;SDS011;42964;42.910;23.792;2022-11-23T20:21:30;69.75;;;45.33;;
57085;SDS011;42964;42.910;23.792;2022-11-23T20:26:30;65.75;;;39.42;;
57085;SDS011;42964;42.910;23.792;2022-11-23T20:31:30;65.97;;;39.53;;
57085;SDS011;42964;42.910;23.792;2022-11-23T20:36:31;73.43;;;42.17;;
57085;SDS011;42964;42.910;23.792;2022-11-23T20:41:32;58.17;;;35.05;;
57085;SDS011;42964;42.910;23.792;2022-11-23T20:46:32;79.97;;;48.25;;
57085;SDS011;42964;42.910;23.792;2022-11-23T20:56:30;81.35;;;48.63;;
57085;SDS011;42964;42.910;23.792;2022-11-23T21:01:29;86.57;;;48.58;;
57085;SDS011;42964;42.910;23.792;2022-11-23T21:06:28;81.20;;;45.80;;
57085;SDS011;42964;42.910;23.792;2022-11-23T21:11:28;89.78;;;46.85;;
57085;SDS011;42964;42.910;23.792;2022-11-23T21:16:55;109.80;;;54.25;;
57085;SDS011;42964;42.910;23.792;2022-11-23T21:22:01;102.03;;;52.67;;
57085;SDS011;42964;42.910;23.792;2022-11-23T21:27:05;182.48;;;98.93;;
57085;SDS011;42964;42.910;23.792;2022-11-23T21:32:05;165.93;;;82.07;;
57085;SDS011;42964;42.910;23.792;2022-11-23T21:37:04;130.20;;;73.03;;
57085;SDS011;42964;42.910;23.792;2022-11-23T21:42:03;90.13;;;48.10;;
57085;SDS011;42964;42.910;23.792;2022-11-23T21:47:03;131.27;;;74.45;;
57085;SDS011;42964;42.910;23.792;2022-11-23T21:52:01;154.27;;;84.07;;
57085;SDS011;42964;42.910;23.792;2022-11-23T21:57:00;119.90;;;69.32;;
57085;SDS011;42964;42.910;23.792;2022-11-23T22:01:59;111.50;;;65.45;;
57085;SDS011;42964;42.910;23.792;2022-11-23T22:06:58;295.65;;;168.35;;
57085;SDS011;42964;42.910;23.792;2022-11-23T22:11:57;131.55;;;76.88;;
57085;SDS011;42964;42.910;23.792;2022-11-23T22:16:56;163.63;;;93.30;;
57085;SDS011;42964;42.910;23.792;2022-11-23T22:21:55;198.88;;;112.65;;
57085;SDS011;42964;42.910;23.792;2022-11-23T22:26:54;113.22;;;61.20;;
57085;SDS011;42964;42.910;23.792;2022-11-23T22:31:54;94.75;;;50.88;;
57085;SDS011;42964;42.910;23.792;2022-11-23T22:36:53;115.00;;;62.30;;
57085;SDS011;42964;42.910;23.792;2022-11-23T22:41:52;160.82;;;36.03;;
57085;SDS011;42964;42.910;23.792;2022-11-23T22:46:51;250.15;;;34.00;;
57085;SDS011;42964;42.910;23.792;2022-11-23T22:51:49;89.78;;;29.17;;
57085;SDS011;42964;42.910;23.792;2022-11-23T22:56:48;96.80;;;34.63;;
57085;SDS011;42964;42.910;23.792;2022-11-23T23:01:47;170.25;;;33.60;;
57085;SDS011;42964;42.910;23.792;2022-11-23T23:06:46;185.77;;;40.63;;
57085;SDS011;42964;42.910;23.792;2022-11-23T23:11:47;159.07;;;37.65;;
57085;SDS011;42964;42.910;23.792;2022-11-23T23:16:46;102.30;;;38.63;;
57085;SDS011;42964;42.910;23.792;2022-11-23T23:21:45;74.60;;;37.50;;
57085;SDS011;42964;42.910;23.792;2022-11-23T23:26:44;90.28;;;43.28;;
57085;SDS011;42964;42.910;23.792;2022-11-23T23:31:43;104.70;;;47.25;;
57085;SDS011;42964;42.910;23.792;2022-11-23T23:36:42;137.30;;;54.00;;
57085;SDS011;42964;42.910;23.792;2022-11-23T23:46:40;156.65;;;40.97;;
57085;SDS011;42964;42.910;23.792;2022-11-23T23:51:39;185.85;;;48.40;;
57085;SDS011;42964;42.910;23.792;2022-11-23T23:56:38;215.90;;;57.30;;
